sensor_id;sensor_type;location;lat;lon;timestamp;temperature;humidity
43673;DHT22;41723;49.326;8.430;2024-03-08T00:01:41;8.30;99.90
43673;DHT22;41723;49.326;8.430;2024-03-08T00:04:06;8.30;99.90
43673;DHT22;41723;49.326;8.430;2024-03-08T00:06:33;8.20;99.90
43673;DHT22;41723;49.326;8.430;2024-03-08T00:08:59;8.10;99.90
43673;DHT22;41723;49.326;8.430;2024-03-08T00:11:24;8.10;99.90
43673;DHT22;41723;49.326;8.430;2024-03-08T00:13:54;8.10;99.90
43673;DHT22;41723;49.326;8.430;2024-03-08T00:16:19;8.10;99.90
43673;DHT22;41723;49.326;8.430;2024-03-08T00:18:45;8.10;99.90
43673;DHT22;41723;49.326;8.430;2024-03-08T00:21:11;8.00;99.90
43673;DHT22;41723;49.326;8.430;2024-03-08T00:23:37;8.00;99.90
43673;DHT22;41723;49.326;8.430;2024-03-08T00:26:03;7.90;99.90
43673;DHT22;41723;49.326;8.430;2024-03-08T00:28:31;7.90;99.90
43673;DHT22;41723;49.326;8.430;2024-03-08T00:30:57;7.80;99.90
43673;DHT22;41723;49.326;8.430;2024-03-08T00:33:23;7.80;99.90
43673;DHT22;41723;49.326;8.430;2024-03-08T00:35:48;7.80;99.90
43673;DHT22;41723;49.326;8.430;2024-03-08T00:38:14;7.70;99.90
43673;DHT22;41723;49.326;8.430;2024-03-08T00:40:39;7.80;99.90
43673;DHT22;41723;49.326;8.430;2024-03-08T00:43:06;7.70;99.90
43673;DHT22;41723;49.326;8.430;2024-03-08T00:45:31;7.70;99.90
43673;DHT22;41723;49.326;8.430;2024-03-08T00:47:57;7.70;99.90
43673;DHT22;41723;49.326;8.430;2024-03-08T00:50:22;7.60;99.90
43673;DHT22;41723;49.326;8.430;2024-03-08T00:52:48;7.60;99.90
43673;DHT22;41723;49.326;8.430;2024-03-08T00:55:13;7.70;99.90
43673;DHT22;41723;49.326;8.430;2024-03-08T00:57:39;7.70;99.90
43673;DHT22;41723;49.326;8.430;2024-03-08T01:00:06;7.70;99.90
43673;DHT22;41723;49.326;8.430;2024-03-08T01:02:37;7.60;99.90
43673;DHT22;41723;49.326;8.430;2024-03-08T01:05:03;7.50;99.90
43673;DHT22;41723;49.326;8.430;2024-03-08T01:07:33;7.40;99.90
43673;DHT22;41723;49.326;8.430;2024-03-08T01:09:59;7.50;99.90
43673;DHT22;41723;49.326;8.430;2024-03-08T01:12:26;7.50;99.90
43673;DHT22;41723;49.326;8.430;2024-03-08T01:14:51;7.60;99.90
43673;DHT22;41723;49.326;8.430;2024-03-08T01:17:17;7.50;99.90
43673;DHT22;41723;49.326;8.430;2024-03-08T01:19:42;7.50;99.90
43673;DHT22;41723;49.326;8.430;2024-03-08T01:22:10;7.40;99.90
43673;DHT22;41723;49.326;8.430;2024-03-08T01:24:36;7.50;99.90
43673;DHT22;41723;49.326;8.430;2024-03-08T01:27:02;7.50;99.90
43673;DHT22;41723;49.326;8.430;2024-03-08T01:29:28;7.50;99.90
43673;DHT22;41723;49.326;8.430;2024-03-08T01:31:55;7.50;99.90
43673;DHT22;41723;49.326;8.430;2024-03-08T01:34:21;7.40;99.90
43673;DHT22;41723;49.326;8.430;2024-03-08T01:36:48;7.50;99.90
43673;DHT22;41723;49.326;8.430;2024-03-08T01:39:14;7.50;99.90
43673;DHT22;41723;49.326;8.430;2024-03-08T01:41:39;7.40;99.90
43673;DHT22;41723;49.326;8.430;2024-03-08T01:44:06;7.40;99.90
43673;DHT22;41723;49.326;8.430;2024-03-08T01:46:32;7.40;99.90
43673;DHT22;41723;49.326;8.430;2024-03-08T01:48:58;7.20;99.90
43673;DHT22;41723;49.326;8.430;2024-03-08T01:51:26;7.30;99.90
43673;DHT22;41723;49.326;8.430;2024-03-08T01:53:53;7.10;99.90
43673;DHT22;41723;49.326;8.430;2024-03-08T01:56:20;7.10;99.90
43673;DHT22;41723;49.326;8.430;2024-03-08T01:58:46;7.10;99.90
43673;DHT22;41723;49.326;8.430;2024-03-08T02:01:12;7.10;99.90
43673;DHT22;41723;49.326;8.430;2024-03-08T02:03:40;7.00;99.90
43673;DHT22;41723;49.326;8.430;2024-03-08T02:06:05;7.00;99.90
43673;DHT22;41723;49.326;8.430;2024-03-08T02:08:35;7.00;99.90
43673;DHT22;41723;49.326;8.430;2024-03-08T02:11:01;6.90;99.90
43673;DHT22;41723;49.326;8.430;2024-03-08T02:13:27;6.90;99.90
43673;DHT22;41723;49.326;8.430;2024-03-08T02:15:54;6.90;99.90
43673;DHT22;41723;49.326;8.430;2024-03-08T02:18:20;6.80;99.90
43673;DHT22;41723;49.326;8.430;2024-03-08T02:20:53;6.80;99.90
43673;DHT22;41723;49.326;8.430;2024-03-08T02:23:19;6.80;99.90
43673;DHT22;41723;49.326;8.430;2024-03-08T02:25:45;6.80;99.90
43673;DHT22;41723;49.326;8.430;2024-03-08T02:28:11;6.90;99.90
43673;DHT22;41723;49.326;8.430;2024-03-08T02:30:37;6.80;99.90
43673;DHT22;41723;49.326;8.430;2024-03-08T02:33:04;6.70;99.90
43673;DHT22;41723;49.326;8.430;2024-03-08T02:35:30;6.70;99.90
43673;DHT22;41723;49.326;8.430;2024-03-08T02:37:55;6.80;99.90
43673;DHT22;41723;49.326;8.430;2024-03-08T02:40:21;6.70;99.90
43673;DHT22;41723;49.326;8.430;2024-03-08T02:42:47;6.70;99.90
43673;DHT22;41723;49.326;8.430;2024-03-08T02:45:13;6.60;99.90
43673;DHT22;41723;49.326;8.430;2024-03-08T02:47:39;6.60;99.90
43673;DHT22;41723;49.326;8.430;2024-03-08T02:50:05;6.50;99.90
43673;DHT22;41723;49.326;8.430;2024-03-08T02:52:33;6.50;99.90
43673;DHT22;41723;49.326;8.430;2024-03-08T02:54:59;6.60;99.90
43673;DHT22;41723;49.326;8.430;2024-03-08T02:57:24;6.60;99.90
43673;DHT22;41723;49.326;8.430;2024-03-08T02:59:50;6.60;99.90
43673;DHT22;41723;49.326;8.430;2024-03-08T03:02:16;6.50;99.90
43673;DHT22;41723;49.326;8.430;2024-03-08T03:04:42;6.60;99.90
43673;DHT22;41723;49.326;8.430;2024-03-08T03:07:08;6.50;99.90
43673;DHT22;41723;49.326;8.430;2024-03-08T03:09:34;6.60;99.90
43673;DHT22;41723;49.326;8.430;2024-03-08T03:11:59;6.60;99.90
43673;DHT22;41723;49.326;8.430;2024-03-08T03:14:25;6.60;99.90
43673;DHT22;41723;49.326;8.430;2024-03-08T03:16:52;6.50;99.90
43673;DHT22;41723;49.326;8.430;2024-03-08T03:19:18;6.40;99.90
43673;DHT22;41723;49.326;8.430;2024-03-08T03:21:43;6.40;99.90
43673;DHT22;41723;49.326;8.430;2024-03-08T03:24:09;6.40;99.90
43673;DHT22;41723;49.326;8.430;2024-03-08T03:26:36;6.30;99.90
43673;DHT22;41723;49.326;8.430;2024-03-08T03:29:07;6.40;99.90
43673;DHT22;41723;49.326;8.430;2024-03-08T03:31:34;6.40;99.90
43673;DHT22;41723;49.326;8.430;2024-03-08T03:34:00;6.50;99.90
43673;DHT22;41723;49.326;8.430;2024-03-08T03:36:28;6.50;99.90
43673;DHT22;41723;49.326;8.430;2024-03-08T03:38:55;6.40;99.90
43673;DHT22;41723;49.326;8.430;2024-03-08T03:41:38;6.40;99.90
43673;DHT22;41723;49.326;8.430;2024-03-08T03:44:04;6.40;99.90
43673;DHT22;41723;49.326;8.430;2024-03-08T03:46:30;6.30;99.90
43673;DHT22;41723;49.326;8.430;2024-03-08T03:48:56;6.30;99.90
43673;DHT22;41723;49.326;8.430;2024-03-08T03:51:22;6.30;99.90
43673;DHT22;41723;49.326;8.430;2024-03-08T03:53:47;6.40;99.90
43673;DHT22;41723;49.326;8.430;2024-03-08T03:56:13;6.30;99.90
43673;DHT22;41723;49.326;8.430;2024-03-08T03:58:39;6.40;99.90
43673;DHT22;41723;49.326;8.430;2024-03-08T04:01:05;6.40;99.90
43673;DHT22;41723;49.326;8.430;2024-03-08T04:03:31;6.40;99.90
43673;DHT22;41723;49.326;8.430;2024-03-08T04:05:56;6.40;99.90
43673;DHT22;41723;49.326;8.430;2024-03-08T04:08:22;6.40;99.90
43673;DHT22;41723;49.326;8.430;2024-03-08T04:10:49;6.30;99.90
43673;DHT22;41723;49.326;8.430;2024-03-08T04:13:14;6.30;99.90
43673;DHT22;41723;49.326;8.430;2024-03-08T04:15:41;6.30;99.90
43673;DHT22;41723;49.326;8.430;2024-03-08T04:18:09;6.30;99.90
43673;DHT22;41723;49.326;8.430;2024-03-08T04:20:35;6.30;99.90
43673;DHT22;41723;49.326;8.430;2024-03-08T04:23:01;6.20;99.90
43673;DHT22;41723;49.326;8.430;2024-03-08T04:25:27;6.10;99.90
43673;DHT22;41723;49.326;8.430;2024-03-08T04:27:53;6.10;99.90
43673;DHT22;41723;49.326;8.430;2024-03-08T04:30:18;6.10;99.90
43673;DHT22;41723;49.326;8.430;2024-03-08T04:32:46;6.00;99.90
43673;DHT22;41723;49.326;8.430;2024-03-08T04:35:12;6.00;99.90
43673;DHT22;41723;49.326;8.430;2024-03-08T04:37:38;6.00;99.90
43673;DHT22;41723;49.326;8.430;2024-03-08T04:40:04;6.10;99.90
43673;DHT22;41723;49.326;8.430;2024-03-08T04:42:30;6.00;99.90
43673;DHT22;41723;49.326;8.430;2024-03-08T04:44:58;5.90;99.90
43673;DHT22;41723;49.326;8.430;2024-03-08T04:47:24;5.90;99.90
43673;DHT22;41723;49.326;8.430;2024-03-08T04:49:50;5.90;99.90
43673;DHT22;41723;49.326;8.430;2024-03-08T04:52:15;5.90;99.90
43673;DHT22;41723;49.326;8.430;2024-03-08T04:54:41;5.90;99.90
43673;DHT22;41723;49.326;8.430;2024-03-08T04:57:07;5.90;99.90
43673;DHT22;41723;49.326;8.430;2024-03-08T04:59:33;5.90;99.90
43673;DHT22;41723;49.326;8.430;2024-03-08T05:01:58;5.90;99.90
43673;DHT22;41723;49.326;8.430;2024-03-08T05:04:24;5.80;99.90
43673;DHT22;41723;49.326;8.430;2024-03-08T05:06:50;5.90;99.90
43673;DHT22;41723;49.326;8.430;2024-03-08T05:09:15;5.80;99.90
43673;DHT22;41723;49.326;8.430;2024-03-08T05:11:41;5.80;99.90
43673;DHT22;41723;49.326;8.430;2024-03-08T05:14:08;5.80;99.90
43673;DHT22;41723;49.326;8.430;2024-03-08T05:16:34;5.80;99.90
43673;DHT22;41723;49.326;8.430;2024-03-08T05:18:59;5.80;99.90
43673;DHT22;41723;49.326;8.430;2024-03-08T05:21:25;5.80;99.90
43673;DHT22;41723;49.326;8.430;2024-03-08T05:23:50;5.70;99.90
43673;DHT22;41723;49.326;8.430;2024-03-08T05:26:16;5.70;99.90
43673;DHT22;41723;49.326;8.430;2024-03-08T05:28:42;5.70;99.90
43673;DHT22;41723;49.326;8.430;2024-03-08T05:31:08;5.70;99.90
43673;DHT22;41723;49.326;8.430;2024-03-08T05:33:33;5.80;99.90
43673;DHT22;41723;49.326;8.430;2024-03-08T05:36:02;5.70;99.90
43673;DHT22;41723;49.326;8.430;2024-03-08T05:38:28;5.80;99.90
43673;DHT22;41723;49.326;8.430;2024-03-08T05:40:54;5.80;99.90
43673;DHT22;41723;49.326;8.430;2024-03-08T05:43:19;5.70;99.90
43673;DHT22;41723;49.326;8.430;2024-03-08T05:45:45;5.70;99.90
43673;DHT22;41723;49.326;8.430;2024-03-08T05:48:11;5.70;99.90
43673;DHT22;41723;49.326;8.430;2024-03-08T05:50:40;5.70;99.90
43673;DHT22;41723;49.326;8.430;2024-03-08T05:53:05;5.70;99.90
43673;DHT22;41723;49.326;8.430;2024-03-08T05:55:34;5.70;99.90
43673;DHT22;41723;49.326;8.430;2024-03-08T05:58:00;5.70;99.90
43673;DHT22;41723;49.326;8.430;2024-03-08T06:00:26;5.60;99.90
43673;DHT22;41723;49.326;8.430;2024-03-08T06:02:52;5.60;99.90
43673;DHT22;41723;49.326;8.430;2024-03-08T06:05:18;5.70;99.90
43673;DHT22;41723;49.326;8.430;2024-03-08T06:07:43;5.60;99.90
43673;DHT22;41723;49.326;8.430;2024-03-08T06:10:09;5.60;99.90
43673;DHT22;41723;49.326;8.430;2024-03-08T06:12:36;5.60;99.90
43673;DHT22;41723;49.326;8.430;2024-03-08T06:15:06;5.50;99.90
43673;DHT22;41723;49.326;8.430;2024-03-08T06:17:31;5.50;99.90
43673;DHT22;41723;49.326;8.430;2024-03-08T06:19:57;5.70;99.90
43673;DHT22;41723;49.326;8.430;2024-03-08T06:22:22;5.60;99.90
43673;DHT22;41723;49.326;8.430;2024-03-08T06:24:48;5.70;99.90
43673;DHT22;41723;49.326;8.430;2024-03-08T06:27:14;5.70;99.90
43673;DHT22;41723;49.326;8.430;2024-03-08T06:29:39;5.70;99.90
43673;DHT22;41723;49.326;8.430;2024-03-08T06:32:05;5.70;99.90
43673;DHT22;41723;49.326;8.430;2024-03-08T06:34:32;5.70;99.90
43673;DHT22;41723;49.326;8.430;2024-03-08T06:36:58;5.70;99.90
43673;DHT22;41723;49.326;8.430;2024-03-08T06:39:26;5.70;99.90
43673;DHT22;41723;49.326;8.430;2024-03-08T06:41:52;5.70;99.90
43673;DHT22;41723;49.326;8.430;2024-03-08T06:44:17;5.80;99.90
43673;DHT22;41723;49.326;8.430;2024-03-08T06:46:43;5.70;99.90
43673;DHT22;41723;49.326;8.430;2024-03-08T06:49:09;5.60;99.90
43673;DHT22;41723;49.326;8.430;2024-03-08T06:51:36;5.60;99.90
43673;DHT22;41723;49.326;8.430;2024-03-08T06:54:01;5.70;99.90
43673;DHT22;41723;49.326;8.430;2024-03-08T06:56:34;5.80;99.90
43673;DHT22;41723;49.326;8.430;2024-03-08T06:58:59;5.60;99.90
43673;DHT22;41723;49.326;8.430;2024-03-08T07:01:25;5.80;99.90
43673;DHT22;41723;49.326;8.430;2024-03-08T07:03:51;5.80;99.90
43673;DHT22;41723;49.326;8.430;2024-03-08T07:06:18;5.80;99.90
43673;DHT22;41723;49.326;8.430;2024-03-08T07:08:44;5.70;99.90
43673;DHT22;41723;49.326;8.430;2024-03-08T07:11:11;5.80;99.90
43673;DHT22;41723;49.326;8.430;2024-03-08T07:13:37;5.70;99.90
43673;DHT22;41723;49.326;8.430;2024-03-08T07:16:04;5.70;99.90
43673;DHT22;41723;49.326;8.430;2024-03-08T07:18:30;5.80;99.90
43673;DHT22;41723;49.326;8.430;2024-03-08T07:20:56;5.90;99.90
43673;DHT22;41723;49.326;8.430;2024-03-08T07:23:22;5.70;99.90
43673;DHT22;41723;49.326;8.430;2024-03-08T07:26:06;5.60;99.90
43673;DHT22;41723;49.326;8.430;2024-03-08T07:28:32;5.70;99.90
43673;DHT22;41723;49.326;8.430;2024-03-08T07:30:58;5.80;99.90
43673;DHT22;41723;49.326;8.430;2024-03-08T07:33:42;5.80;99.90
43673;DHT22;41723;49.326;8.430;2024-03-08T07:36:08;5.80;99.90
43673;DHT22;41723;49.326;8.430;2024-03-08T07:38:33;5.90;99.90
43673;DHT22;41723;49.326;8.430;2024-03-08T07:40:59;5.90;99.90
43673;DHT22;41723;49.326;8.430;2024-03-08T07:43:26;6.00;99.90
43673;DHT22;41723;49.326;8.430;2024-03-08T07:45:51;6.10;99.90
43673;DHT22;41723;49.326;8.430;2024-03-08T07:48:18;6.20;99.90
43673;DHT22;41723;49.326;8.430;2024-03-08T07:50:44;6.20;99.90
43673;DHT22;41723;49.326;8.430;2024-03-08T07:53:09;6.00;99.90
43673;DHT22;41723;49.326;8.430;2024-03-08T07:55:35;6.00;99.90
43673;DHT22;41723;49.326;8.430;2024-03-08T07:58:01;6.10;99.90
43673;DHT22;41723;49.326;8.430;2024-03-08T08:00:28;6.20;99.90
43673;DHT22;41723;49.326;8.430;2024-03-08T08:02:55;6.20;99.90
43673;DHT22;41723;49.326;8.430;2024-03-08T08:05:21;6.30;99.90
43673;DHT22;41723;49.326;8.430;2024-03-08T08:07:47;6.20;99.90
43673;DHT22;41723;49.326;8.430;2024-03-08T08:10:12;6.30;99.90
43673;DHT22;41723;49.326;8.430;2024-03-08T08:12:50;6.40;99.90
43673;DHT22;41723;49.326;8.430;2024-03-08T08:15:15;6.40;99.90
43673;DHT22;41723;49.326;8.430;2024-03-08T08:17:44;6.50;99.90
43673;DHT22;41723;49.326;8.430;2024-03-08T08:20:10;6.40;99.90
43673;DHT22;41723;49.326;8.430;2024-03-08T08:22:40;6.50;99.90
43673;DHT22;41723;49.326;8.430;2024-03-08T08:25:06;6.50;99.90
43673;DHT22;41723;49.326;8.430;2024-03-08T08:27:32;6.60;99.90
43673;DHT22;41723;49.326;8.430;2024-03-08T08:29:58;6.80;99.90
43673;DHT22;41723;49.326;8.430;2024-03-08T08:32:24;6.90;99.90
43673;DHT22;41723;49.326;8.430;2024-03-08T08:34:50;6.90;99.90
43673;DHT22;41723;49.326;8.430;2024-03-08T08:37:17;6.90;99.90
43673;DHT22;41723;49.326;8.430;2024-03-08T08:39:43;6.90;99.90
43673;DHT22;41723;49.326;8.430;2024-03-08T08:42:09;6.90;99.90
43673;DHT22;41723;49.326;8.430;2024-03-08T08:44:35;7.10;99.90
43673;DHT22;41723;49.326;8.430;2024-03-08T08:47:01;7.10;99.90
43673;DHT22;41723;49.326;8.430;2024-03-08T08:49:26;7.00;99.90
43673;DHT22;41723;49.326;8.430;2024-03-08T08:51:52;7.20;99.90
43673;DHT22;41723;49.326;8.430;2024-03-08T08:54:18;7.20;99.90
43673;DHT22;41723;49.326;8.430;2024-03-08T08:56:44;7.20;99.90
43673;DHT22;41723;49.326;8.430;2024-03-08T08:59:10;7.20;99.90
43673;DHT22;41723;49.326;8.430;2024-03-08T09:01:39;7.20;99.90
43673;DHT22;41723;49.326;8.430;2024-03-08T09:04:05;7.10;99.90
43673;DHT22;41723;49.326;8.430;2024-03-08T09:06:31;7.20;99.90
43673;DHT22;41723;49.326;8.430;2024-03-08T09:08:56;7.10;99.90
43673;DHT22;41723;49.326;8.430;2024-03-08T09:11:23;7.10;99.90
43673;DHT22;41723;49.326;8.430;2024-03-08T09:13:50;7.00;99.90
43673;DHT22;41723;49.326;8.430;2024-03-08T09:16:16;7.00;99.90
43673;DHT22;41723;49.326;8.430;2024-03-08T09:18:41;7.00;99.90
43673;DHT22;41723;49.326;8.430;2024-03-08T09:21:07;7.00;99.90
43673;DHT22;41723;49.326;8.430;2024-03-08T09:23:38;7.10;99.90
43673;DHT22;41723;49.326;8.430;2024-03-08T09:26:03;7.10;99.90
43673;DHT22;41723;49.326;8.430;2024-03-08T09:28:30;7.00;99.90
43673;DHT22;41723;49.326;8.430;2024-03-08T09:30:55;7.00;99.90
43673;DHT22;41723;49.326;8.430;2024-03-08T09:33:21;7.10;99.90
43673;DHT22;41723;49.326;8.430;2024-03-08T09:35:47;7.00;99.90
43673;DHT22;41723;49.326;8.430;2024-03-08T09:38:14;7.10;99.90
43673;DHT22;41723;49.326;8.430;2024-03-08T09:40:43;7.00;99.90
43673;DHT22;41723;49.326;8.430;2024-03-08T09:43:09;7.10;99.90
43673;DHT22;41723;49.326;8.430;2024-03-08T09:45:37;7.10;99.90
43673;DHT22;41723;49.326;8.430;2024-03-08T09:48:12;7.20;99.90
43673;DHT22;41723;49.326;8.430;2024-03-08T09:50:40;7.30;99.90
43673;DHT22;41723;49.326;8.430;2024-03-08T09:53:06;7.20;99.90
43673;DHT22;41723;49.326;8.430;2024-03-08T09:55:37;7.40;99.90
43673;DHT22;41723;49.326;8.430;2024-03-08T09:58:05;7.30;99.90
43673;DHT22;41723;49.326;8.430;2024-03-08T10:00:49;7.20;99.90
43673;DHT22;41723;49.326;8.430;2024-03-08T10:03:15;7.30;99.90
43673;DHT22;41723;49.326;8.430;2024-03-08T10:05:41;7.20;99.90
43673;DHT22;41723;49.326;8.430;2024-03-08T10:08:07;7.40;99.90
43673;DHT22;41723;49.326;8.430;2024-03-08T10:10:36;7.40;99.90
43673;DHT22;41723;49.326;8.430;2024-03-08T10:13:06;7.30;99.90
43673;DHT22;41723;49.326;8.430;2024-03-08T10:15:32;7.40;99.90
43673;DHT22;41723;49.326;8.430;2024-03-08T10:18:00;7.40;99.90
43673;DHT22;41723;49.326;8.430;2024-03-08T10:20:28;7.50;99.90
43673;DHT22;41723;49.326;8.430;2024-03-08T10:23:02;7.60;99.90
43673;DHT22;41723;49.326;8.430;2024-03-08T10:25:29;7.60;99.90
43673;DHT22;41723;49.326;8.430;2024-03-08T10:27:55;7.60;99.90
43673;DHT22;41723;49.326;8.430;2024-03-08T10:30:21;7.50;99.90
43673;DHT22;41723;49.326;8.430;2024-03-08T10:32:47;7.50;99.90
43673;DHT22;41723;49.326;8.430;2024-03-08T10:35:13;7.60;99.90
43673;DHT22;41723;49.326;8.430;2024-03-08T10:37:44;7.60;99.90
43673;DHT22;41723;49.326;8.430;2024-03-08T10:40:13;7.60;99.90
43673;DHT22;41723;49.326;8.430;2024-03-08T10:42:47;7.60;99.90
43673;DHT22;41723;49.326;8.430;2024-03-08T10:45:35;7.60;99.90
43673;DHT22;41723;49.326;8.430;2024-03-08T10:48:04;7.90;99.90
43673;DHT22;41723;49.326;8.430;2024-03-08T10:50:34;8.20;99.90
43673;DHT22;41723;49.326;8.430;2024-03-08T10:53:00;8.30;99.90
43673;DHT22;41723;49.326;8.430;2024-03-08T10:55:26;8.30;99.90
43673;DHT22;41723;49.326;8.430;2024-03-08T10:57:53;8.20;99.30
43673;DHT22;41723;49.326;8.430;2024-03-08T11:00:19;8.30;99.90
43673;DHT22;41723;49.326;8.430;2024-03-08T11:02:52;8.30;99.90
43673;DHT22;41723;49.326;8.430;2024-03-08T11:05:38;8.40;99.20
43673;DHT22;41723;49.326;8.430;2024-03-08T11:08:25;8.40;99.20
43673;DHT22;41723;49.326;8.430;2024-03-08T11:10:50;8.70;99.90
43673;DHT22;41723;49.326;8.430;2024-03-08T11:13:32;8.90;99.30
43673;DHT22;41723;49.326;8.430;2024-03-08T11:15:57;9.00;99.00
43673;DHT22;41723;49.326;8.430;2024-03-08T11:18:24;9.10;98.60
43673;DHT22;41723;49.326;8.430;2024-03-08T11:20:50;9.10;98.20
43673;DHT22;41723;49.326;8.430;2024-03-08T11:23:19;9.10;99.60
43673;DHT22;41723;49.326;8.430;2024-03-08T11:25:48;9.10;98.50
43673;DHT22;41723;49.326;8.430;2024-03-08T11:28:22;9.10;98.20
43673;DHT22;41723;49.326;8.430;2024-03-08T11:33:24;9.40;97.50
43673;DHT22;41723;49.326;8.430;2024-03-08T11:35:52;9.30;97.30
43673;DHT22;41723;49.326;8.430;2024-03-08T11:38:17;9.00;97.60
43673;DHT22;41723;49.326;8.430;2024-03-08T11:40:47;9.10;97.40
43673;DHT22;41723;49.326;8.430;2024-03-08T11:43:17;9.30;97.70
43673;DHT22;41723;49.326;8.430;2024-03-08T11:45:43;9.60;97.30
43673;DHT22;41723;49.326;8.430;2024-03-08T11:48:09;9.80;97.00
43673;DHT22;41723;49.326;8.430;2024-03-08T11:50:34;10.00;96.60
43673;DHT22;41723;49.326;8.430;2024-03-08T11:53:00;10.00;96.70
43673;DHT22;41723;49.326;8.430;2024-03-08T11:55:26;10.10;96.30
43673;DHT22;41723;49.326;8.430;2024-03-08T11:57:59;10.20;96.20
43673;DHT22;41723;49.326;8.430;2024-03-08T12:00:24;10.00;96.40
43673;DHT22;41723;49.326;8.430;2024-03-08T12:03:01;10.00;96.30
43673;DHT22;41723;49.326;8.430;2024-03-08T12:05:27;9.80;96.40
43673;DHT22;41723;49.326;8.430;2024-03-08T12:07:59;9.60;96.70
43673;DHT22;41723;49.326;8.430;2024-03-08T12:10:25;9.60;97.00
43673;DHT22;41723;49.326;8.430;2024-03-08T12:12:51;9.60;96.80
43673;DHT22;41723;49.326;8.430;2024-03-08T12:15:21;9.60;97.50
43673;DHT22;41723;49.326;8.430;2024-03-08T12:17:48;9.70;97.10
43673;DHT22;41723;49.326;8.430;2024-03-08T12:22:49;9.80;97.00
43673;DHT22;41723;49.326;8.430;2024-03-08T12:25:15;9.80;96.50
43673;DHT22;41723;49.326;8.430;2024-03-08T12:27:41;10.10;96.30
43673;DHT22;41723;49.326;8.430;2024-03-08T12:32:46;10.80;95.90
43673;DHT22;41723;49.326;8.430;2024-03-08T12:35:12;11.00;95.40
43673;DHT22;41723;49.326;8.430;2024-03-08T12:37:39;11.00;95.60
43673;DHT22;41723;49.326;8.430;2024-03-08T12:40:07;11.10;95.40
43673;DHT22;41723;49.326;8.430;2024-03-08T12:42:33;11.30;94.80
43673;DHT22;41723;49.326;8.430;2024-03-08T12:44:59;11.30;94.60
43673;DHT22;41723;49.326;8.430;2024-03-08T12:47:29;11.40;94.80
43673;DHT22;41723;49.326;8.430;2024-03-08T12:49:57;11.50;94.70
43673;DHT22;41723;49.326;8.430;2024-03-08T12:52:22;11.60;94.30
43673;DHT22;41723;49.326;8.430;2024-03-08T12:54:48;11.80;94.10
43673;DHT22;41723;49.326;8.430;2024-03-08T12:57:14;11.70;94.10
43673;DHT22;41723;49.326;8.430;2024-03-08T12:59:40;12.00;94.40
43673;DHT22;41723;49.326;8.430;2024-03-08T13:02:08;12.00;93.80
43673;DHT22;41723;49.326;8.430;2024-03-08T13:04:36;12.00;93.80
43673;DHT22;41723;49.326;8.430;2024-03-08T13:07:02;12.20;93.80
43673;DHT22;41723;49.326;8.430;2024-03-08T13:09:28;12.10;93.70
43673;DHT22;41723;49.326;8.430;2024-03-08T13:11:54;12.10;94.30
43673;DHT22;41723;49.326;8.430;2024-03-08T13:14:21;12.40;93.40
43673;DHT22;41723;49.326;8.430;2024-03-08T13:16:47;12.30;93.50
43673;DHT22;41723;49.326;8.430;2024-03-08T13:19:13;12.20;94.00
43673;DHT22;41723;49.326;8.430;2024-03-08T13:21:39;12.40;93.40
43673;DHT22;41723;49.326;8.430;2024-03-08T13:24:05;12.40;93.40
43673;DHT22;41723;49.326;8.430;2024-03-08T13:26:30;12.80;93.40
43673;DHT22;41723;49.326;8.430;2024-03-08T13:28:58;12.80;93.00
43673;DHT22;41723;49.326;8.430;2024-03-08T13:31:23;12.70;92.90
43673;DHT22;41723;49.326;8.430;2024-03-08T13:33:49;12.90;93.20
43673;DHT22;41723;49.326;8.430;2024-03-08T13:36:17;12.70;93.00
43673;DHT22;41723;49.326;8.430;2024-03-08T13:38:46;12.60;93.40
43673;DHT22;41723;49.326;8.430;2024-03-08T13:41:13;12.60;93.30
43673;DHT22;41723;49.326;8.430;2024-03-08T13:43:42;12.70;93.30
43673;DHT22;41723;49.326;8.430;2024-03-08T13:46:08;12.70;93.30
43673;DHT22;41723;49.326;8.430;2024-03-08T13:48:35;12.70;93.20
43673;DHT22;41723;49.326;8.430;2024-03-08T13:51:03;12.80;93.20
43673;DHT22;41723;49.326;8.430;2024-03-08T13:53:30;12.90;93.00
43673;DHT22;41723;49.326;8.430;2024-03-08T13:55:55;12.80;93.30
43673;DHT22;41723;49.326;8.430;2024-03-08T13:58:22;12.90;92.90
43673;DHT22;41723;49.326;8.430;2024-03-08T14:00:47;12.90;93.20
43673;DHT22;41723;49.326;8.430;2024-03-08T14:03:13;13.00;93.40
43673;DHT22;41723;49.326;8.430;2024-03-08T14:05:39;13.30;93.30
43673;DHT22;41723;49.326;8.430;2024-03-08T14:08:05;13.40;92.80
43673;DHT22;41723;49.326;8.430;2024-03-08T14:10:35;13.40;92.50
43673;DHT22;41723;49.326;8.430;2024-03-08T14:13:05;13.30;92.60
43673;DHT22;41723;49.326;8.430;2024-03-08T14:15:32;13.30;92.80
43673;DHT22;41723;49.326;8.430;2024-03-08T14:17:58;13.30;92.70
43673;DHT22;41723;49.326;8.430;2024-03-08T14:20:23;13.30;92.80
43673;DHT22;41723;49.326;8.430;2024-03-08T14:22:51;13.10;92.40
43673;DHT22;41723;49.326;8.430;2024-03-08T14:25:17;13.30;93.00
43673;DHT22;41723;49.326;8.430;2024-03-08T14:27:43;13.30;92.80
43673;DHT22;41723;49.326;8.430;2024-03-08T14:30:09;13.10;92.50
43673;DHT22;41723;49.326;8.430;2024-03-08T14:32:35;13.30;92.70
43673;DHT22;41723;49.326;8.430;2024-03-08T14:35:04;13.10;92.50
43673;DHT22;41723;49.326;8.430;2024-03-08T14:37:29;13.30;93.20
43673;DHT22;41723;49.326;8.430;2024-03-08T14:39:55;13.20;92.60
43673;DHT22;41723;49.326;8.430;2024-03-08T14:42:21;13.10;92.60
43673;DHT22;41723;49.326;8.430;2024-03-08T14:44:48;13.20;92.50
43673;DHT22;41723;49.326;8.430;2024-03-08T14:47:17;13.30;92.80
43673;DHT22;41723;49.326;8.430;2024-03-08T14:49:42;13.30;92.50
43673;DHT22;41723;49.326;8.430;2024-03-08T14:52:08;13.20;92.30
43673;DHT22;41723;49.326;8.430;2024-03-08T14:54:53;13.30;92.30
43673;DHT22;41723;49.326;8.430;2024-03-08T14:57:18;13.20;92.50
43673;DHT22;41723;49.326;8.430;2024-03-08T14:59:44;13.20;92.60
43673;DHT22;41723;49.326;8.430;2024-03-08T15:02:10;13.00;92.70
43673;DHT22;41723;49.326;8.430;2024-03-08T15:04:35;13.10;92.90
43673;DHT22;41723;49.326;8.430;2024-03-08T15:07:01;13.00;92.50
43673;DHT22;41723;49.326;8.430;2024-03-08T15:09:27;13.00;93.10
43673;DHT22;41723;49.326;8.430;2024-03-08T15:11:53;12.90;92.90
43673;DHT22;41723;49.326;8.430;2024-03-08T15:14:20;12.70;92.90
43673;DHT22;41723;49.326;8.430;2024-03-08T15:16:46;12.70;93.10
43673;DHT22;41723;49.326;8.430;2024-03-08T15:19:13;12.70;92.90
43673;DHT22;41723;49.326;8.430;2024-03-08T15:21:40;12.50;93.00
43673;DHT22;41723;49.326;8.430;2024-03-08T15:24:08;12.30;93.30
43673;DHT22;41723;49.326;8.430;2024-03-08T15:26:43;12.20;93.60
43673;DHT22;41723;49.326;8.430;2024-03-08T15:29:09;12.20;93.50
43673;DHT22;41723;49.326;8.430;2024-03-08T15:31:35;12.10;93.60
43673;DHT22;41723;49.326;8.430;2024-03-08T15:34:00;12.10;93.50
43673;DHT22;41723;49.326;8.430;2024-03-08T15:36:30;12.00;93.90
43673;DHT22;41723;49.326;8.430;2024-03-08T15:38:58;12.00;93.50
43673;DHT22;41723;49.326;8.430;2024-03-08T15:41:24;12.00;93.50
43673;DHT22;41723;49.326;8.430;2024-03-08T15:43:52;11.90;93.70
43673;DHT22;41723;49.326;8.430;2024-03-08T15:46:18;12.00;94.30
43673;DHT22;41723;49.326;8.430;2024-03-08T15:48:47;12.00;93.90